Vremea acum in Blaj - Romania

Vrei sa afli care e starea vremii acum in Alba - Romania? Dorim sa iti furnizam starea vremii pentru Alba - Romania. Starea vremii Alba - Romania pentru astazi.

Vremea acum in Blaj

Temperatura: -1 °C

Se simte ca: -3.5 °C
Innorat: 100 %
Precipitatii: 0 %
Presiune atmosferica: 1019 hPa
Umiditate: 93%
Vizibilitate: 1 km
Vantul bate din N cu 6.8 km/h

Evolutia vremii in Blaj pe ore

Ora: 05:00
Parțial noros
Temperatura: -4.2°C
Sansa de precipitatii: 0%
Ora Descriere Temp Se simte Precipitatii Umiditate Vant
00:00Parțial noros-3.2°-3.2°0%81%SSE 2.2 KM/H
01:00Parțial noros-3.3°-3.3°0%82%SSE 2.5 KM/H
02:00Parțial noros-3.5°-3.5°0%83%SE 2.5 KM/H
03:00Parțial noros-3.7°-4.1°0%84%SE 2.9 KM/H
04:00Parțial noros-4°-4.6°0%85%ESE 2.9 KM/H
05:00Parțial noros-4.2°-5.2°0%86%ESE 3.2 KM/H
06:00Parțial noros-4.5°-5.5°0%88%ESE 3.2 KM/H
07:00Parțial noros-4.7°-5.8°0%90%ESE 3.2 KM/H
08:00Parțial noros-5°-6.1°0%91%E 3.2 KM/H
09:00Parțial noros-3.9°-5.5°0%88%E 4.3 KM/H
10:00Parțial noros-2.7°-4.8°0%85%E 5.8 KM/H
11:00Parțial noros-1.6°-4.2°0%82%ENE 6.8 KM/H
12:00Parțial noros-1.1°-4°0%80%ENE 7.9 KM/H
13:00Parțial noros-0.7°-3.8°0%78%ENE 9 KM/H
14:00Parțial noros-0.2°-3.6°0%76%ENE 10.1 KM/H
15:00Noros-0.7°-3.8°0%79%NE 9 KM/H
16:00Parțial noros-1.2°-4.1°0%82%NE 7.9 KM/H
17:00Noros-1.7°-4.3°0%85%NE 6.8 KM/H
18:00Cer acoperit-2.7°-4.4°0%83%NNE 6.8 KM/H
19:00Noros-3.7°-4.6°0%82%NNE 7.2 KM/H
20:00Cer acoperit-4.7°-4.7°0%80%NNE 7.2 KM/H
21:00Ninsori în cantităţi mici-6.7°-6.7°0%79%NNE 7.6 KM/H
22:00Cer acoperit-8.7°-8.7°0%77%NE 7.6 KM/H
23:00Ninsori în cantităţi mici-10.7°-10.7°0%75%NE 7.9 KM/H